Aviosuperficie "Marc Ingegno"

IT-0040 · 皮埃蒙特, 意大利

使用的METAR站距离机场39 km。
罗盘
风向 的 风向 020° Aviosuperficie "Marc Ingegno" 1/19
风: 9 kt, 3 beaufort

9 kt

2 kt
改变
0 ft 1.000 2.000 3.000 4.000 5.000
Cloud Cloud Cloud Cloud Cloud Cloud
BKN 3.000
METAR LIMC 270120Z 02009KT 9999 -RA BKN030 05/03 Q1006 NOSIG

METAR Aviosuperficie "Marc Ingegno" - IT-0040

Aviosuperficie "Marc Ingegno"是,意大利中的小机场。 该机场位于纬度45,77806和经度8,26861。 该机场有一条跑道: 1/19. 这个机场没有ICAO代码,我们使用IT-0040作为参考。 机场在Milano FIR中。

该航空气象观测是针对Malpensa International Airport在2024年2月27日 02:20, 当地时间进行的。

机场观察

风向为020°,速度为9 kt。

可见度为10 km 或者更多。

有碎云在3.000 ft的高度。 破损或更高的上限为3.000 ft。

当前天气为光 雨。 温度为5 °C,阵风为0 °C。 露点为3 °C,相对湿度为87%。 海平面上的气压为1006 hPa (QNH)。

白天

今天,太阳从07:09升起,在18:09降落。 这适用于Aviosuperficie "Marc Ingegno",世界夏令时可能有所不同。 当地时间与世界标准时间之间的时差为+1 小时。 当前,没有夏令时有效。

公司介绍

我们没有关于这个机场的公司信息。

体会

到Vliegles.nl去找飞行课程,跳伞和其他飞行体验。 浏览页面,了解Aviosuperficie "Marc Ingegno"附近所有可用的活动。 你也可以使用搜索功能来寻找你所在地附近的特定飞行课程、跳伞或其他飞行体验。

跑道

Id 标题 侧风 逆风 侧风 %
1/19 010°-190° 2 kt 9 kt 17 %

逆风成分最大的方向会被突出显示,并用于横风计算。 这并不一定意味着这个方向在使用。

乌云

3.000 ft BKN 碎云

温度 & 天气

天气 光 雨
温度 5 °C
露点 3 °C
相对湿度 87%
风寒 0 °C
Kp-index 3 (0-9)

白天

日出
07:07 (4:31)
中午
12:37
日落
18:07

小工具

你想在你的网站上有一个关于Aviosuperficie "Marc Ingegno"的当前航空天气(METAR)的小部件吗?

显示HTML代码
?>